Time;durP1;ratioP1;P1;durP2;ratioP2;P2;SDS_P1;SDS_P2;PMS_P1;PMS_P2;Temp;Humidity;BMP_temperature;BMP_pressure;BME280_temperature;BME280_humidity;BME280_pressure;Samples;Min_cycle;Max_cycle;Signal;HPM_P1;HPM_P2
2023/12/15 00:01:14;;;;;;;13.73;5.88;;;5.60;99.90;;;;;;5019214;28;20033;-65
2023/12/15 00:03:40;;;;;;;12.05;5.85;;;5.60;99.90;;;;;;5018370;28;20040;-64
2023/12/15 00:06:06;;;;;;;13.27;6.18;;;5.50;99.90;;;;;;5019000;28;20037;-66
2023/12/15 00:08:31;;;;;;;11.82;5.70;;;5.50;99.90;;;;;;5019109;28;20032;-66
2023/12/15 00:10:57;;;;;;;11.48;4.53;;;5.30;99.90;;;;;;5018857;28;20026;-66
2023/12/15 00:13:22;;;;;;;11.77;5.00;;;5.20;99.90;;;;;;5018324;28;20057;-66
2023/12/15 00:15:48;;;;;;;9.45;5.57;;;5.20;99.90;;;;;;5018050;28;20116;-66
2023/12/15 00:18:13;;;;;;;12.85;5.72;;;5.20;99.90;;;;;;5017742;28;20026;-66
2023/12/15 00:20:39;;;;;;;12.40;5.50;;;5.20;99.90;;;;;;5018781;28;20029;-66
2023/12/15 00:23:04;;;;;;;22.92;6.45;;;5.30;99.90;;;;;;5018609;28;20018;-66
2023/12/15 00:25:30;;;;;;;18.80;5.40;;;5.30;99.90;;;;;;5017869;28;20032;-66
2023/12/15 00:27:55;;;;;;;10.95;5.40;;;5.40;99.90;;;;;;5017672;28;20164;-66
2023/12/15 00:30:21;;;;;;;9.70;5.38;;;5.40;99.90;;;;;;5018135;28;20066;-66
2023/12/15 00:32:47;;;;;;;15.88;5.97;;;5.30;99.90;;;;;;5019742;28;20104;-72
2023/12/15 00:35:12;;;;;;;12.48;5.15;;;5.30;99.90;;;;;;5017877;28;20026;-72
2023/12/15 00:37:38;;;;;;;10.98;5.63;;;5.30;99.90;;;;;;5017539;28;20022;-72
2023/12/15 00:40:03;;;;;;;10.77;5.95;;;5.40;99.90;;;;;;5018637;28;20056;-66
2023/12/15 00:42:29;;;;;;;11.90;5.32;;;5.40;99.90;;;;;;5017456;28;20121;-66
2023/12/15 00:44:56;;;;;;;11.18;5.05;;;5.50;99.90;;;;;;5018278;28;20025;-66
2023/12/15 00:47:21;;;;;;;9.38;4.60;;;5.50;99.90;;;;;;5017584;28;20079;-66
2023/12/15 00:49:47;;;;;;;8.13;4.10;;;5.60;99.90;;;;;;5017179;28;20029;-72
2023/12/15 00:52:12;;;;;;;10.68;4.55;;;5.70;99.90;;;;;;5017299;28;20025;-72
2023/12/15 00:54:38;;;;;;;10.32;5.18;;;5.80;99.90;;;;;;5017417;28;20072;-72
2023/12/15 00:57:03;;;;;;;15.77;5.32;;;5.90;99.90;;;;;;5017140;28;20022;-73
2023/12/15 00:59:29;;;;;;;15.68;4.70;;;6.10;99.90;;;;;;5017283;28;20026;-72
2023/12/15 01:01:54;;;;;;;10.07;4.43;;;6.30;99.90;;;;;;5017110;28;20036;-66
2023/12/15 01:04:20;;;;;;;11.98;5.43;;;6.40;99.90;;;;;;5018062;28;20026;-66
2023/12/15 01:06:46;;;;;;;9.77;4.78;;;6.50;99.90;;;;;;5017321;28;20088;-66
2023/12/15 01:09:11;;;;;;;10.90;5.05;;;6.50;99.90;;;;;;5016938;28;20026;-66
2023/12/15 01:11:37;;;;;;;14.13;5.53;;;6.50;99.90;;;;;;5017908;28;20025;-66
2023/12/15 01:14:02;;;;;;;17.63;5.63;;;6.50;99.90;;;;;;5017362;28;20032;-64
2023/12/15 01:16:28;;;;;;;15.60;5.38;;;6.60;99.90;;;;;;5016830;28;20057;-65
2023/12/15 01:18:54;;;;;;;12.68;5.25;;;6.60;99.90;;;;;;5017743;28;20030;-64
2023/12/15 01:21:19;;;;;;;12.20;5.47;;;6.50;99.90;;;;;;5017140;28;20061;-64
2023/12/15 01:23:45;;;;;;;11.65;5.35;;;6.60;99.90;;;;;;5016762;28;20026;-64
2023/12/15 01:26:10;;;;;;;13.75;5.32;;;6.60;99.90;;;;;;5017127;28;20026;-64
2023/12/15 01:28:36;;;;;;;13.70;5.80;;;6.60;99.90;;;;;;5016619;28;20068;-65
2023/12/15 01:31:02;;;;;;;16.25;6.13;;;6.50;99.90;;;;;;5017058;28;20113;-65
2023/12/15 01:33:28;;;;;;;14.60;6.40;;;6.50;99.90;;;;;;5017589;28;20040;-64
2023/12/15 01:35:54;;;;;;;13.45;5.75;;;6.50;99.90;;;;;;5016871;28;20029;-65
2023/12/15 01:38:20;;;;;;;14.38;5.78;;;6.60;99.90;;;;;;5016840;28;20125;-64
2023/12/15 01:40:45;;;;;;;14.77;6.50;;;6.60;99.90;;;;;;5016946;28;20089;-72
2023/12/15 01:43:11;;;;;;;14.93;6.30;;;6.60;99.90;;;;;;5017311;28;20056;-72
2023/12/15 01:45:36;;;;;;;16.00;5.95;;;6.50;99.90;;;;;;5016944;28;20026;-72
2023/12/15 01:48:02;;;;;;;18.15;6.53;;;6.40;99.90;;;;;;5016819;28;20065;-72
2023/12/15 01:50:28;;;;;;;14.25;5.97;;;6.30;99.90;;;;;;5016611;28;20022;-72
2023/12/15 01:52:53;;;;;;;15.15;5.95;;;6.40;99.90;;;;;;5017831;28;20049;-72
2023/12/15 01:55:19;;;;;;;18.65;6.63;;;6.60;99.90;;;;;;5017779;28;20168;-72
2023/12/15 01:57:45;;;;;;;16.27;6.57;;;6.70;99.90;;;;;;5017330;28;20028;-72
2023/12/15 02:00:12;;;;;;;19.63;6.78;;;6.70;99.90;;;;;;5019395;28;20042;-72
2023/12/15 02:02:38;;;;;;;14.85;7.13;;;6.50;99.90;;;;;;5021234;28;20119;-72
2023/12/15 02:05:04;;;;;;;16.05;6.57;;;6.50;99.90;;;;;;5017381;28;20030;-73
2023/12/15 02:07:30;;;;;;;19.98;7.85;;;6.60;99.90;;;;;;5021743;28;20076;-72
2023/12/15 02:09:58;;;;;;;17.17;6.72;;;6.70;99.90;;;;;;5016279;28;20065;-72
2023/12/15 02:12:23;;;;;;;21.48;8.25;;;6.70;99.90;;;;;;5016985;28;20033;-72
2023/12/15 02:14:49;;;;;;;17.77;6.80;;;6.60;99.90;;;;;;5017039;28;20030;-72
2023/12/15 02:17:14;;;;;;;18.50;6.90;;;6.70;99.90;;;;;;5017384;28;20081;-72
2023/12/15 02:19:40;;;;;;;19.13;6.70;;;6.70;99.90;;;;;;5016094;28;20022;-72
2023/12/15 02:22:05;;;;;;;20.75;8.13;;;6.50;99.90;;;;;;5016405;28;20026;-72
2023/12/15 02:24:31;;;;;;;19.77;7.00;;;6.60;99.90;;;;;;5016148;28;20144;-72
2023/12/15 02:26:57;;;;;;;21.08;7.47;;;6.60;99.90;;;;;;5019272;28;20084;-72
2023/12/15 02:29:23;;;;;;;21.00;8.80;;;6.60;99.90;;;;;;5020036;28;20026;-72
2023/12/15 02:31:48;;;;;;;19.42;7.05;;;6.50;99.90;;;;;;5019869;28;20025;-72
2023/12/15 02:34:14;;;;;;;19.15;7.20;;;6.60;99.90;;;;;;5020755;28;20057;-72
2023/12/15 02:36:39;;;;;;;18.75;6.97;;;6.70;99.90;;;;;;5020914;28;20026;-73
2023/12/15 02:39:05;;;;;;;17.35;7.47;;;6.60;99.90;;;;;;5021699;28;20104;-72
2023/12/15 02:41:31;;;;;;;21.35;7.80;;;6.70;99.90;;;;;;5020258;28;20029;-71
2023/12/15 02:43:57;;;;;;;19.27;7.25;;;6.60;99.90;;;;;;5019815;28;20034;-71
2023/12/15 02:46:22;;;;;;;19.73;7.03;;;6.60;99.90;;;;;;5020348;28;20100;-72
2023/12/15 02:48:48;;;;;;;21.88;8.77;;;6.60;99.90;;;;;;5019669;28;20038;-72
2023/12/15 02:51:31;;;;;;;19.27;7.10;;;6.60;99.90;;;;;;5020674;28;20053;-72
2023/12/15 02:54:00;;;;;;;23.08;8.70;;;6.60;99.90;;;;;;5020587;28;20067;-72
2023/12/15 02:56:26;;;;;;;20.10;8.18;;;6.50;99.90;;;;;;5019359;28;20029;-72
2023/12/15 02:58:52;;;;;;;22.33;8.60;;;6.50;99.90;;;;;;5020539;28;20117;-72
2023/12/15 03:01:18;;;;;;;24.42;8.45;;;6.40;99.90;;;;;;5020281;28;20042;-73
2023/12/15 03:03:44;;;;;;;23.10;9.43;;;6.40;99.90;;;;;;5019309;28;20025;-72
2023/12/15 03:06:09;;;;;;;21.48;9.18;;;6.50;99.90;;;;;;5019301;28;20030;-66
2023/12/15 03:08:35;;;;;;;23.98;8.23;;;6.50;99.90;;;;;;5019086;28;20026;-66
2023/12/15 03:11:00;;;;;;;21.15;8.57;;;6.50;99.90;;;;;;5020085;28;20036;-66
2023/12/15 03:13:28;;;;;;;25.48;9.45;;;6.40;99.90;;;;;;5019226;28;20029;-66
2023/12/15 03:15:55;;;;;;;30.70;9.20;;;6.30;99.90;;;;;;5019106;28;20026;-66
2023/12/15 03:18:21;;;;;;;22.33;8.55;;;6.30;99.90;;;;;;5019029;28;20022;-71
2023/12/15 03:20:47;;;;;;;22.33;9.40;;;6.50;99.90;;;;;;5020528;28;20026;-71
2023/12/15 03:23:12;;;;;;;25.95;9.43;;;6.50;99.90;;;;;;5019108;28;20064;-71
2023/12/15 03:25:38;;;;;;;24.52;9.45;;;6.60;99.90;;;;;;5019055;28;20033;-70
2023/12/15 03:28:03;;;;;;;21.70;8.98;;;6.50;99.90;;;;;;5019933;28;20034;-71
2023/12/15 03:30:29;;;;;;;27.92;8.35;;;6.50;99.90;;;;;;5020324;28;20034;-71
2023/12/15 03:32:54;;;;;;;24.98;9.02;;;6.50;99.90;;;;;;5019374;28;20027;-70
2023/12/15 03:35:20;;;;;;;19.50;8.65;;;6.40;99.90;;;;;;5018823;28;20018;-71
2023/12/15 03:37:45;;;;;;;26.33;9.98;;;6.40;99.90;;;;;;5020932;28;20100;-71
2023/12/15 03:40:11;;;;;;;27.63;9.35;;;6.40;99.90;;;;;;5020646;28;20123;-70
2023/12/15 03:42:37;;;;;;;23.25;9.10;;;6.40;99.90;;;;;;5020175;28;20036;-70
2023/12/15 03:45:03;;;;;;;30.67;10.05;;;6.40;99.90;;;;;;5019178;28;20032;-70
2023/12/15 03:48:08;;;;;;;29.05;10.27;;;6.50;99.90;;;;;;5021878;28;20034;-66
2023/12/15 03:50:33;;;;;;;27.50;9.70;;;6.50;99.90;;;;;;5025881;28;20092;-72
2023/12/15 03:52:59;;;;;;;28.80;10.93;;;6.40;99.90;;;;;;5018668;28;20034;-72
2023/12/15 03:55:25;;;;;;;23.90;8.38;;;6.50;99.90;;;;;;5018303;28;20113;-72
2023/12/15 03:57:50;;;;;;;26.95;10.05;;;6.40;99.90;;;;;;5019205;28;20018;-72
2023/12/15 04:00:17;;;;;;;23.17;9.27;;;6.50;99.90;;;;;;5019245;28;20032;-72
2023/12/15 04:02:43;;;;;;;30.55;10.50;;;6.50;99.90;;;;;;5019436;28;20029;-72
2023/12/15 04:05:08;;;;;;;25.67;9.50;;;6.40;99.90;;;;;;5018443;28;20068;-72
2023/12/15 04:07:34;;;;;;;25.48;9.27;;;6.50;99.90;;;;;;5018943;28;20026;-73
2023/12/15 04:09:59;;;;;;;22.70;9.68;;;6.50;99.90;;;;;;5018012;28;20034;-72
2023/12/15 04:12:25;;;;;;;23.90;9.60;;;6.40;99.90;;;;;;5018457;28;20025;-72
2023/12/15 04:14:50;;;;;;;25.92;9.55;;;6.40;99.90;;;;;;5018672;28;20071;-72
2023/12/15 04:17:16;;;;;;;27.67;10.07;;;6.30;99.90;;;;;;5018412;28;20022;-72
2023/12/15 04:19:41;;;;;;;23.48;9.60;;;6.30;99.90;;;;;;5018013;28;20022;-72
2023/12/15 04:22:07;;;;;;;27.40;9.82;;;6.30;99.90;;;;;;5018230;28;20040;-72
2023/12/15 04:24:32;;;;;;;25.02;10.43;;;6.20;99.90;;;;;;5017726;28;20121;-72
2023/12/15 04:26:58;;;;;;;27.23;9.60;;;6.10;99.90;;;;;;5018329;28;20109;-72
2023/12/15 04:29:23;;;;;;;31.95;10.43;;;6.10;99.90;;;;;;5017694;28;20034;-72
2023/12/15 04:31:49;;;;;;;27.42;10.90;;;5.90;99.90;;;;;;5017581;28;20018;-72
2023/12/15 04:34:14;;;;;;;25.08;10.40;;;5.90;99.90;;;;;;5017706;28;20055;-72
2023/12/15 04:36:40;;;;;;;32.45;10.30;;;5.80;99.90;;;;;;5017555;28;20018;-72
2023/12/15 04:39:07;;;;;;;24.95;10.48;;;5.90;99.90;;;;;;5017779;28;20022;-72
2023/12/15 04:41:32;;;;;;;26.65;10.75;;;5.80;99.90;;;;;;5017514;28;20036;-72
2023/12/15 04:43:58;;;;;;;31.55;10.45;;;5.80;99.90;;;;;;5018224;28;20030;-72
2023/12/15 04:46:28;;;;;;;27.42;10.15;;;5.80;99.90;;;;;;5018373;28;20068;-72
2023/12/15 04:48:55;;;;;;;31.20;10.77;;;5.90;99.90;;;;;;5016808;28;20026;-72
2023/12/15 04:51:21;;;;;;;32.22;11.02;;;6.00;99.90;;;;;;5017339;28;20045;-73
2023/12/15 04:53:48;;;;;;;34.53;11.45;;;6.00;99.90;;;;;;5018167;28;20026;-72
2023/12/15 04:56:14;;;;;;;27.60;10.85;;;6.10;99.90;;;;;;5018495;28;20022;-72
2023/12/15 04:58:40;;;;;;;28.92;10.43;;;6.10;99.90;;;;;;5017203;28;20057;-72
2023/12/15 05:01:15;;;;;;;33.30;11.88;;;6.10;99.90;;;;;;5018199;28;20033;-72
2023/12/15 05:03:41;;;;;;;29.63;11.02;;;6.00;99.90;;;;;;5017958;28;20033;-72
2023/12/15 05:06:19;;;;;;;34.80;11.20;;;5.90;99.90;;;;;;5018113;28;20026;-72
2023/12/15 05:08:45;;;;;;;29.55;10.90;;;5.80;99.90;;;;;;5018216;28;20060;-72
2023/12/15 05:11:10;;;;;;;31.52;11.65;;;5.90;99.90;;;;;;5017216;28;20090;-72
2023/12/15 05:13:36;;;;;;;29.67;12.20;;;6.00;99.90;;;;;;5018233;28;20045;-72
2023/12/15 05:16:02;;;;;;;34.55;12.07;;;6.10;99.90;;;;;;5017562;28;20033;-72
2023/12/15 05:18:27;;;;;;;33.80;10.50;;;6.10;99.90;;;;;;5017590;28;20022;-73
2023/12/15 05:20:53;;;;;;;27.58;10.60;;;6.20;99.90;;;;;;5016848;28;20026;-73
2023/12/15 05:23:18;;;;;;;31.33;11.85;;;6.30;99.90;;;;;;5018202;28;20032;-72
2023/12/15 05:25:44;;;;;;;32.05;11.68;;;6.30;99.90;;;;;;5016739;28;20022;-72
2023/12/15 05:28:10;;;;;;;29.50;11.77;;;6.30;99.90;;;;;;5016618;28;20018;-72
2023/12/15 05:30:35;;;;;;;31.80;11.23;;;6.20;99.90;;;;;;5017529;28;20071;-72
2023/12/15 05:33:01;;;;;;;29.08;11.48;;;6.20;99.90;;;;;;5017615;28;20026;-72
2023/12/15 05:35:27;;;;;;;30.02;11.38;;;6.30;99.90;;;;;;5016868;28;20151;-73
2023/12/15 05:37:53;;;;;;;34.72;12.50;;;6.30;99.90;;;;;;5016476;28;20026;-72
2023/12/15 05:40:18;;;;;;;34.03;11.38;;;6.30;99.90;;;;;;5016913;28;20040;-72
2023/12/15 05:42:44;;;;;;;34.55;11.90;;;6.30;99.90;;;;;;5016909;28;20117;-73
2023/12/15 05:45:11;;;;;;;36.35;11.85;;;6.30;99.90;;;;;;5016580;28;20014;-72
2023/12/15 05:47:36;;;;;;;34.67;12.10;;;6.20;99.90;;;;;;5041126;22;20076;-66
2023/12/15 05:50:02;;;;;;;30.63;12.15;;;6.10;99.90;;;;;;5017323;28;20018;-66
2023/12/15 05:52:28;;;;;;;33.58;11.25;;;6.20;99.90;;;;;;5017488;28;20022;-66
2023/12/15 05:54:54;;;;;;;32.33;12.20;;;6.10;99.90;;;;;;5033136;28;20045;-66
2023/12/15 05:57:19;;;;;;;33.67;12.00;;;6.20;99.90;;;;;;5032840;28;20044;-66
2023/12/15 05:59:45;;;;;;;34.78;12.30;;;6.20;99.90;;;;;;5017214;28;20032;-66
2023/12/15 06:02:10;;;;;;;32.30;11.82;;;6.20;99.90;;;;;;5032664;28;20025;-66
2023/12/15 06:04:36;;;;;;;27.10;11.38;;;6.10;99.90;;;;;;5032672;28;20034;-66
2023/12/15 06:07:02;;;;;;;30.85;10.98;;;6.30;99.90;;;;;;5017422;28;20041;-66
2023/12/15 06:09:27;;;;;;;33.30;11.60;;;6.30;99.90;;;;;;5016484;28;20136;-66
2023/12/15 06:11:53;;;;;;;32.88;12.13;;;6.40;99.90;;;;;;5017285;28;20094;-66
2023/12/15 06:14:20;;;;;;;30.38;11.77;;;6.40;99.90;;;;;;5017182;28;20057;-66
2023/12/15 06:16:47;;;;;;;30.17;11.95;;;6.20;99.90;;;;;;5017033;28;20021;-66
2023/12/15 06:19:13;;;;;;;33.08;11.95;;;6.20;99.90;;;;;;5017350;28;20022;-66
2023/12/15 06:21:38;;;;;;;31.52;11.75;;;6.20;99.90;;;;;;5017026;28;20030;-66
2023/12/15 06:24:04;;;;;;;34.78;11.73;;;6.20;99.90;;;;;;5017000;28;20053;-66
2023/12/15 06:26:30;;;;;;;39.65;12.15;;;6.00;99.90;;;;;;5032568;28;20026;-68
2023/12/15 06:28:55;;;;;;;30.90;11.25;;;5.70;99.90;;;;;;5016917;28;20033;-68
2023/12/15 06:31:22;;;;;;;39.63;11.95;;;5.60;99.90;;;;;;5018375;28;20022;-69
2023/12/15 06:33:47;;;;;;;29.80;11.50;;;5.50;99.90;;;;;;5016967;28;20026;-69
2023/12/15 06:36:13;;;;;;;35.90;11.27;;;5.50;99.90;;;;;;5017207;28;20032;-69
2023/12/15 06:38:43;;;;;;;34.63;11.00;;;5.30;99.90;;;;;;5016973;28;20068;-69
2023/12/15 06:41:12;;;;;;;29.60;10.52;;;5.40;99.90;;;;;;5016918;28;20022;-69
2023/12/15 06:43:42;;;;;;;27.95;10.13;;;5.50;99.90;;;;;;5015920;28;20061;-69
2023/12/15 06:46:08;;;;;;;29.55;10.63;;;5.50;99.90;;;;;;5032659;28;20022;-69
2023/12/15 06:48:34;;;;;;;26.95;9.90;;;5.60;99.90;;;;;;5016861;28;20030;-69
2023/12/15 06:51:00;;;;;;;29.67;10.45;;;5.70;99.90;;;;;;5016004;28;20025;-69
2023/12/15 06:53:25;;;;;;;30.40;12.15;;;5.60;99.90;;;;;;5032413;28;20022;-69
2023/12/15 06:55:51;;;;;;;30.83;11.68;;;5.70;99.90;;;;;;5032475;28;20072;-69
2023/12/15 06:58:17;;;;;;;30.35;10.07;;;5.80;99.90;;;;;;5016654;28;20026;-69
2023/12/15 07:00:43;;;;;;;33.03;11.00;;;5.90;99.90;;;;;;5015934;28;20045;-69
2023/12/15 07:03:08;;;;;;;30.10;11.48;;;5.90;99.90;;;;;;5032988;28;20054;-69
2023/12/15 07:05:34;;;;;;;28.77;10.52;;;5.90;99.90;;;;;;5016687;28;20032;-70
2023/12/15 07:08:01;;;;;;;29.80;10.90;;;5.90;99.90;;;;;;5016541;28;20053;-70
2023/12/15 07:10:26;;;;;;;37.08;10.57;;;5.90;99.90;;;;;;5016543;28;20176;-69
2023/12/15 07:12:52;;;;;;;27.02;10.35;;;5.90;99.90;;;;;;5018285;28;20022;-69
2023/12/15 07:15:17;;;;;;;29.25;10.93;;;5.90;99.90;;;;;;5020059;28;20029;-69
2023/12/15 07:17:43;;;;;;;34.55;11.02;;;5.90;99.90;;;;;;5035518;28;20025;-69
2023/12/15 07:20:09;;;;;;;24.30;9.50;;;5.90;99.90;;;;;;5035537;28;20025;-69
2023/12/15 07:22:35;;;;;;;27.73;10.25;;;5.90;99.90;;;;;;5019906;28;20018;-69
2023/12/15 07:25:01;;;;;;;27.85;10.98;;;5.90;99.90;;;;;;5019913;28;20026;-69
2023/12/15 07:27:26;;;;;;;26.85;10.65;;;5.80;99.90;;;;;;5019720;28;20033;-69
2023/12/15 07:29:52;;;;;;;32.50;11.25;;;5.80;99.90;;;;;;5019697;28;20110;-69
2023/12/15 07:32:18;;;;;;;28.98;10.82;;;5.90;99.90;;;;;;5019691;28;20022;-69
2023/12/15 07:34:43;;;;;;;30.90;9.63;;;5.90;99.90;;;;;;5019144;28;20061;-69
2023/12/15 07:37:09;;;;;;;29.23;11.35;;;5.90;99.90;;;;;;5018692;28;20029;-69
2023/12/15 07:39:34;;;;;;;26.70;10.30;;;6.00;99.90;;;;;;5035189;28;20072;-69
2023/12/15 07:42:00;;;;;;;28.50;10.02;;;6.20;99.90;;;;;;5035097;28;20026;-68
2023/12/15 07:44:26;;;;;;;26.42;9.68;;;6.30;99.90;;;;;;5035117;28;20022;-68
2023/12/15 07:46:54;;;;;;;30.48;10.57;;;6.30;99.90;;;;;;5019267;28;20029;-68
2023/12/15 07:49:20;;;;;;;30.50;11.32;;;6.20;99.90;;;;;;5018467;28;20104;-67
2023/12/15 07:51:46;;;;;;;28.25;10.75;;;6.10;99.90;;;;;;5019315;28;20029;-67
2023/12/15 07:54:11;;;;;;;26.42;9.13;;;6.10;99.90;;;;;;5018498;28;20022;-67
2023/12/15 07:56:37;;;;;;;26.42;9.05;;;6.20;99.90;;;;;;5019612;28;20046;-67
2023/12/15 07:59:02;;;;;;;29.08;9.05;;;6.20;99.90;;;;;;5018229;28;20033;-67
2023/12/15 08:01:28;;;;;;;24.80;9.70;;;6.20;99.90;;;;;;5019353;28;20025;-67
2023/12/15 08:03:54;;;;;;;26.35;10.30;;;6.30;99.90;;;;;;5019080;28;20022;-67
2023/12/15 08:06:19;;;;;;;28.58;9.27;;;6.40;99.90;;;;;;5019404;28;20037;-67
2023/12/15 08:08:46;;;;;;;25.70;10.20;;;6.50;99.90;;;;;;5018123;28;20030;-67
2023/12/15 08:11:13;;;;;;;28.58;10.40;;;6.40;99.90;;;;;;5019364;28;20014;-66
2023/12/15 08:13:39;;;;;;;24.67;9.90;;;6.30;99.90;;;;;;5018892;28;20091;-66
2023/12/15 08:16:06;;;;;;;21.52;9.13;;;6.30;99.90;;;;;;5018037;28;20026;-66
2023/12/15 08:18:31;;;;;;;25.10;9.70;;;6.30;99.90;;;;;;5019029;28;20033;-66
2023/12/15 08:20:58;;;;;;;24.48;8.95;;;6.20;99.90;;;;;;5018792;28;20030;-66
2023/12/15 08:23:24;;;;;;;27.38;9.85;;;6.00;99.90;;;;;;5018731;28;20049;-66
2023/12/15 08:25:50;;;;;;;28.83;9.25;;;6.00;99.90;;;;;;5018615;28;20054;-68
2023/12/15 08:28:18;;;;;;;23.92;9.30;;;5.90;99.90;;;;;;5034240;28;20021;-68
2023/12/15 08:30:44;;;;;;;27.08;9.32;;;6.00;99.90;;;;;;5018808;28;20030;-68
2023/12/15 08:33:10;;;;;;;27.95;8.48;;;6.10;99.90;;;;;;5018538;28;20014;-68
2023/12/15 08:35:35;;;;;;;24.65;9.43;;;6.30;99.90;;;;;;5018638;28;20121;-68
2023/12/15 08:38:01;;;;;;;23.08;8.50;;;6.50;99.90;;;;;;5018481;28;20022;-68
2023/12/15 08:40:27;;;;;;;25.67;8.15;;;6.70;99.90;;;;;;5018449;28;20057;-69
2023/12/15 08:42:53;;;;;;;25.40;9.13;;;6.70;99.90;;;;;;5018933;28;20076;-68
2023/12/15 08:45:19;;;;;;;25.60;8.63;;;6.80;99.90;;;;;;5017377;28;20026;-69
2023/12/15 08:47:44;;;;;;;26.50;10.55;;;6.70;99.90;;;;;;5018180;28;20093;-69
2023/12/15 08:50:10;;;;;;;23.50;9.38;;;6.70;99.90;;;;;;5018156;28;20113;-69
2023/12/15 08:52:35;;;;;;;26.35;10.05;;;6.50;99.90;;;;;;5018344;28;20026;-69
2023/12/15 08:55:01;;;;;;;20.98;8.52;;;6.50;99.90;;;;;;5034202;28;20022;-68
2023/12/15 08:57:27;;;;;;;25.30;9.23;;;6.40;99.90;;;;;;5017052;28;20033;-67
2023/12/15 08:59:53;;;;;;;30.35;10.07;;;6.20;99.90;;;;;;5017302;28;20030;-68
2023/12/15 09:02:19;;;;;;;28.75;10.05;;;6.10;99.90;;;;;;5018070;28;20022;-69
2023/12/15 09:04:45;;;;;;;28.25;9.57;;;5.90;99.90;;;;;;5033642;28;20034;-68
2023/12/15 09:07:11;;;;;;;25.65;10.32;;;5.90;99.90;;;;;;5017957;28;20053;-68
2023/12/15 09:09:38;;;;;;;23.60;10.23;;;5.90;99.90;;;;;;5016920;28;20061;-67
2023/12/15 09:12:05;;;;;;;30.30;10.10;;;5.90;99.90;;;;;;5017912;28;20045;-67
2023/12/15 09:14:31;;;;;;;24.35;10.10;;;6.00;99.90;;;;;;5018055;28;20029;-67
2023/12/15 09:16:57;;;;;;;30.63;10.00;;;6.00;99.90;;;;;;5016826;28;20022;-67
2023/12/15 09:19:24;;;;;;;26.17;10.50;;;6.00;99.90;;;;;;5033650;28;20029;-67
2023/12/15 09:21:49;;;;;;;26.58;9.75;;;6.10;99.90;;;;;;5033540;28;20029;-67
2023/12/15 09:24:17;;;;;;;29.38;10.27;;;6.10;99.90;;;;;;5016883;28;20035;-66
2023/12/15 09:26:44;;;;;;;33.47;10.57;;;6.20;99.90;;;;;;5034032;28;20037;-66
2023/12/15 09:29:10;;;;;;;23.77;8.77;;;6.20;99.90;;;;;;5033936;28;20026;-66
2023/12/15 09:31:36;;;;;;;20.73;9.45;;;6.40;99.90;;;;;;5033525;28;20022;-66
2023/12/15 09:34:02;;;;;;;22.48;9.43;;;6.40;99.90;;;;;;5017610;28;20022;-68
2023/12/15 09:36:28;;;;;;;25.27;10.25;;;6.50;99.90;;;;;;5016350;28;20072;-68
2023/12/15 09:38:54;;;;;;;25.33;10.20;;;6.40;99.90;;;;;;5017606;28;20034;-68
2023/12/15 09:41:20;;;;;;;30.05;10.52;;;6.30;99.90;;;;;;5017564;28;20026;-68
2023/12/15 09:43:45;;;;;;;27.75;10.00;;;6.30;99.90;;;;;;5032997;28;20084;-67
2023/12/15 09:46:11;;;;;;;24.85;9.82;;;6.30;99.90;;;;;;5017407;28;20025;-67
2023/12/15 09:48:38;;;;;;;29.67;10.05;;;6.30;99.90;;;;;;5017760;28;20069;-68
2023/12/15 09:51:08;;;;;;;32.72;9.65;;;6.30;99.90;;;;;;5017448;28;20029;-68
2023/12/15 09:53:36;;;;;;;27.73;10.65;;;6.40;99.90;;;;;;5017670;28;20033;-67
2023/12/15 09:56:02;;;;;;;21.50;8.82;;;6.40;99.90;;;;;;5032905;28;20030;-68
2023/12/15 09:58:28;;;;;;;22.33;9.18;;;6.50;99.90;;;;;;5016387;28;20090;-68
2023/12/15 10:00:53;;;;;;;17.88;8.63;;;6.70;99.90;;;;;;5016388;28;20025;-68
2023/12/15 10:03:19;;;;;;;31.67;10.68;;;6.80;99.90;;;;;;5016782;28;20103;-68
2023/12/15 10:05:44;;;;;;;30.98;9.40;;;6.60;99.90;;;;;;5032738;28;20022;-68
2023/12/15 10:08:10;;;;;;;27.83;9.50;;;6.50;99.90;;;;;;5017066;28;20025;-68
2023/12/15 10:10:35;;;;;;;24.73;9.20;;;6.50;99.90;;;;;;5017620;28;20094;-68
2023/12/15 10:13:01;;;;;;;26.42;9.77;;;6.50;99.90;;;;;;5017191;28;20021;-68
2023/12/15 10:15:27;;;;;;;30.83;11.93;;;6.50;99.90;;;;;;5017441;28;20029;-68
2023/12/15 10:17:54;;;;;;;34.15;10.82;;;6.60;99.90;;;;;;5016999;28;20026;-67
2023/12/15 10:20:20;;;;;;;35.25;11.77;;;6.60;99.90;;;;;;5032701;28;20029;-67
2023/12/15 10:22:47;;;;;;;31.83;11.13;;;6.70;99.90;;;;;;5017199;28;20117;-68
2023/12/15 10:25:20;;;;;;;32.25;11.57;;;6.80;99.90;;;;;;5016996;28;20030;-67
2023/12/15 10:27:47;;;;;;;34.97;11.52;;;6.90;99.90;;;;;;5017275;28;20053;-67
2023/12/15 10:30:13;;;;;;;26.00;10.93;;;7.00;99.90;;;;;;5016939;28;20058;-67
2023/12/15 10:32:39;;;;;;;31.35;11.68;;;6.90;99.90;;;;;;5016922;28;20029;-67
2023/12/15 10:35:05;;;;;;;32.22;11.65;;;7.00;99.90;;;;;;5016388;28;20041;-66
2023/12/15 10:37:30;;;;;;;27.67;10.90;;;7.00;99.90;;;;;;5017019;28;20076;-66
2023/12/15 10:39:59;;;;;;;31.33;11.10;;;6.90;99.90;;;;;;5032848;28;20049;-66
2023/12/15 10:42:25;;;;;;;28.45;10.68;;;6.80;99.90;;;;;;5032374;28;20026;-67
2023/12/15 10:44:51;;;;;;;29.33;12.35;;;6.80;99.90;;;;;;5016996;28;20041;-67
2023/12/15 10:47:18;;;;;;;29.55;10.88;;;6.80;99.90;;;;;;5017409;28;20037;-66
2023/12/15 10:49:46;;;;;;;23.15;9.80;;;6.80;99.90;;;;;;5036364;28;20030;-66
2023/12/15 10:52:15;;;;;;;25.23;10.05;;;7.00;99.90;;;;;;5019924;28;20028;-66
2023/12/15 10:54:42;;;;;;;31.80;10.05;;;7.10;99.90;;;;;;5020493;28;20045;-67
2023/12/15 10:57:10;;;;;;;24.90;10.40;;;7.00;99.90;;;;;;5035826;28;20029;-67
2023/12/15 10:59:37;;;;;;;27.60;9.88;;;7.00;99.90;;;;;;5020503;28;20029;-68
2023/12/15 11:02:03;;;;;;;23.25;9.73;;;7.10;99.90;;;;;;5020306;28;20049;-67
2023/12/15 11:04:31;;;;;;;25.35;9.63;;;7.20;99.90;;;;;;5019861;28;20056;-67
2023/12/15 11:06:56;;;;;;;24.48;10.93;;;7.20;99.90;;;;;;5020238;28;20025;-66
2023/12/15 11:09:33;;;;;;;22.17;10.00;;;7.30;99.90;;;;;;5019955;28;20022;-66
2023/12/15 11:12:22;;;;;;;24.33;10.95;;;7.30;99.90;;;;;;5035821;28;20026;-67
2023/12/15 11:15:02;;;;;;;30.90;10.90;;;7.30;99.90;;;;;;5020203;28;20022;-66
2023/12/15 11:17:29;;;;;;;27.77;11.43;;;7.20;99.90;;;;;;5019683;28;20022;-66
2023/12/15 11:20:08;;;;;;;29.40;10.40;;;7.10;99.90;;;;;;5035521;28;20022;-67
2023/12/15 11:23:05;;;;;;;33.03;11.70;;;7.10;99.90;;;;;;5020147;28;20034;-65
2023/12/15 11:25:34;;;;;;;31.42;11.57;;;7.10;99.90;;;;;;5035538;28;20032;-67
2023/12/15 11:28:15;;;;;;;30.08;10.80;;;7.10;99.90;;;;;;5019972;28;20076;-66
2023/12/15 11:30:52;;;;;;;24.00;8.98;;;7.30;99.90;;;;;;5019768;28;20029;-66
2023/12/15 11:33:26;;;;;;;23.20;9.32;;;7.40;99.90;;;;;;5019952;28;20028;-66
2023/12/15 11:35:53;;;;;;;24.30;8.90;;;7.60;99.90;;;;;;5036320;28;20088;-67
2023/12/15 11:38:20;;;;;;;26.17;10.55;;;7.70;99.90;;;;;;5019563;28;20026;-66
2023/12/15 11:40:49;;;;;;;27.60;10.02;;;7.70;99.90;;;;;;5019711;28;20080;-66
2023/12/15 11:43:15;;;;;;;25.60;10.45;;;7.60;99.90;;;;;;5019637;28;20022;-66
2023/12/15 11:45:41;;;;;;;23.55;10.10;;;7.80;99.90;;;;;;5035016;28;20030;-67
2023/12/15 11:48:11;;;;;;;28.58;10.13;;;7.70;99.90;;;;;;5019879;28;20049;-65
2023/12/15 11:50:38;;;;;;;24.15;10.27;;;7.60;99.90;;;;;;5019435;28;20029;-66
2023/12/15 11:53:12;;;;;;;33.15;10.18;;;7.60;99.90;;;;;;5019485;28;20018;-66
2023/12/15 11:55:39;;;;;;;24.00;9.18;;;7.50;99.90;;;;;;5019746;28;20022;-66
2023/12/15 11:58:06;;;;;;;25.45;10.30;;;7.60;99.90;;;;;;5018714;28;20029;-65
2023/12/15 12:00:32;;;;;;;29.13;9.95;;;7.70;99.90;;;;;;5034854;28;20030;-66
2023/12/15 12:02:58;;;;;;;27.65;10.07;;;7.80;99.90;;;;;;5019351;28;20032;-66
2023/12/15 12:05:23;;;;;;;23.30;8.90;;;7.90;99.90;;;;;;5035422;28;20025;-66
2023/12/15 12:07:49;;;;;;;19.60;8.15;;;7.90;99.90;;;;;;5019428;28;20080;-66
2023/12/15 12:10:15;;;;;;;19.33;9.00;;;8.00;99.90;;;;;;5018007;28;20032;-66
2023/12/15 12:12:41;;;;;;;24.25;10.30;;;8.00;99.90;;;;;;5018122;28;20037;-67
2023/12/15 12:15:10;;;;;;;23.70;9.18;;;7.90;99.90;;;;;;5018995;28;20014;-65
2023/12/15 12:17:37;;;;;;;21.98;7.57;;;7.90;99.90;;;;;;5018121;28;20033;-66
2023/12/15 12:20:10;;;;;;;21.45;8.52;;;8.00;99.90;;;;;;5018967;28;20033;-65
2023/12/15 12:22:39;;;;;;;25.35;8.43;;;8.00;99.90;;;;;;5019128;28;20101;-66
2023/12/15 12:25:06;;;;;;;20.48;8.05;;;8.00;99.90;;;;;;5017795;28;20026;-66
2023/12/15 12:27:33;;;;;;;23.63;8.85;;;8.00;99.90;;;;;;5018724;28;20079;-66
2023/12/15 12:29:59;;;;;;;18.75;9.02;;;8.00;99.90;;;;;;5018817;28;20063;-65
2023/12/15 12:32:25;;;;;;;18.33;7.97;;;8.00;99.90;;;;;;5018106;28;20107;-67
2023/12/15 12:34:51;;;;;;;16.67;6.95;;;8.00;99.90;;;;;;5017759;28;20053;-67
2023/12/15 12:37:17;;;;;;;22.33;8.65;;;7.90;99.90;;;;;;5018087;28;20021;-68
2023/12/15 12:39:42;;;;;;;24.73;7.85;;;7.90;99.90;;;;;;5017768;28;20049;-68